sensor_id;sensor_type;location;lat;lon;timestamp;temperature;humidity
52415;DHT22;38340;52.964;6.086;2024-02-23T00:01:40;5.00;99.90
52415;DHT22;38340;52.964;6.086;2024-02-23T00:04:06;4.90;99.90
52415;DHT22;38340;52.964;6.086;2024-02-23T00:06:34;4.90;99.90
52415;DHT22;38340;52.964;6.086;2024-02-23T00:09:00;4.60;99.90
52415;DHT22;38340;52.964;6.086;2024-02-23T00:11:25;4.30;99.90
52415;DHT22;38340;52.964;6.086;2024-02-23T00:13:53;4.20;99.90
52415;DHT22;38340;52.964;6.086;2024-02-23T00:16:19;4.30;99.90
52415;DHT22;38340;52.964;6.086;2024-02-23T00:18:45;4.30;99.90
52415;DHT22;38340;52.964;6.086;2024-02-23T00:21:10;4.40;99.90
52415;DHT22;38340;52.964;6.086;2024-02-23T00:23:36;4.50;99.90
52415;DHT22;38340;52.964;6.086;2024-02-23T00:26:02;4.50;99.90
52415;DHT22;38340;52.964;6.086;2024-02-23T00:28:28;4.50;99.90
52415;DHT22;38340;52.964;6.086;2024-02-23T00:30:53;4.40;99.90
52415;DHT22;38340;52.964;6.086;2024-02-23T00:33:19;4.30;99.90
52415;DHT22;38340;52.964;6.086;2024-02-23T00:35:45;4.30;99.90
52415;DHT22;38340;52.964;6.086;2024-02-23T00:38:10;4.40;99.90
52415;DHT22;38340;52.964;6.086;2024-02-23T00:40:36;4.50;99.90
52415;DHT22;38340;52.964;6.086;2024-02-23T00:43:02;4.40;99.90
52415;DHT22;38340;52.964;6.086;2024-02-23T00:45:28;4.40;99.90
52415;DHT22;38340;52.964;6.086;2024-02-23T00:47:54;4.30;99.90
52415;DHT22;38340;52.964;6.086;2024-02-23T00:50:20;4.30;99.90
52415;DHT22;38340;52.964;6.086;2024-02-23T00:52:46;4.30;99.90
52415;DHT22;38340;52.964;6.086;2024-02-23T00:55:11;4.30;99.90
52415;DHT22;38340;52.964;6.086;2024-02-23T00:57:38;4.30;99.90
52415;DHT22;38340;52.964;6.086;2024-02-23T01:00:04;4.30;99.90
52415;DHT22;38340;52.964;6.086;2024-02-23T01:02:34;4.30;99.90
52415;DHT22;38340;52.964;6.086;2024-02-23T01:05:00;4.30;99.90
52415;DHT22;38340;52.964;6.086;2024-02-23T01:07:26;4.30;99.90
52415;DHT22;38340;52.964;6.086;2024-02-23T01:09:51;4.40;99.90
52415;DHT22;38340;52.964;6.086;2024-02-23T01:12:17;4.40;99.90
52415;DHT22;38340;52.964;6.086;2024-02-23T01:14:43;4.50;99.90
52415;DHT22;38340;52.964;6.086;2024-02-23T01:17:09;4.60;99.90
52415;DHT22;38340;52.964;6.086;2024-02-23T01:19:34;4.60;99.90
52415;DHT22;38340;52.964;6.086;2024-02-23T01:22:00;4.60;99.90
52415;DHT22;38340;52.964;6.086;2024-02-23T01:24:28;4.70;99.90
52415;DHT22;38340;52.964;6.086;2024-02-23T01:26:57;4.70;99.90
52415;DHT22;38340;52.964;6.086;2024-02-23T01:29:25;4.80;99.90
52415;DHT22;38340;52.964;6.086;2024-02-23T01:31:51;4.90;99.90
52415;DHT22;38340;52.964;6.086;2024-02-23T01:34:17;5.00;99.90
52415;DHT22;38340;52.964;6.086;2024-02-23T01:36:43;5.10;99.90
52415;DHT22;38340;52.964;6.086;2024-02-23T01:39:09;5.20;99.90
52415;DHT22;38340;52.964;6.086;2024-02-23T01:41:35;5.40;99.90
52415;DHT22;38340;52.964;6.086;2024-02-23T01:44:01;5.40;99.90
52415;DHT22;38340;52.964;6.086;2024-02-23T01:46:27;5.50;99.90
52415;DHT22;38340;52.964;6.086;2024-02-23T01:48:53;5.50;99.90
52415;DHT22;38340;52.964;6.086;2024-02-23T01:51:19;5.60;99.90
52415;DHT22;38340;52.964;6.086;2024-02-23T01:53:45;5.70;99.90
52415;DHT22;38340;52.964;6.086;2024-02-23T01:56:12;5.70;99.90
52415;DHT22;38340;52.964;6.086;2024-02-23T01:58:43;5.70;99.90
52415;DHT22;38340;52.964;6.086;2024-02-23T02:01:10;5.80;99.90
52415;DHT22;38340;52.964;6.086;2024-02-23T02:03:38;5.80;99.90
52415;DHT22;38340;52.964;6.086;2024-02-23T02:06:05;5.80;99.90
52415;DHT22;38340;52.964;6.086;2024-02-23T02:08:33;5.80;99.90
52415;DHT22;38340;52.964;6.086;2024-02-23T02:10:59;5.70;99.90
52415;DHT22;38340;52.964;6.086;2024-02-23T02:13:24;5.70;99.90
52415;DHT22;38340;52.964;6.086;2024-02-23T02:15:50;5.70;99.90
52415;DHT22;38340;52.964;6.086;2024-02-23T02:18:16;5.70;99.90
52415;DHT22;38340;52.964;6.086;2024-02-23T02:20:56;5.70;99.90
52415;DHT22;38340;52.964;6.086;2024-02-23T02:23:23;5.70;99.90
52415;DHT22;38340;52.964;6.086;2024-02-23T02:25:59;5.70;99.90
52415;DHT22;38340;52.964;6.086;2024-02-23T02:28:25;5.70;99.90
52415;DHT22;38340;52.964;6.086;2024-02-23T02:30:51;5.70;99.90
52415;DHT22;38340;52.964;6.086;2024-02-23T02:33:20;5.70;99.90
52415;DHT22;38340;52.964;6.086;2024-02-23T02:35:46;5.60;99.90
52415;DHT22;38340;52.964;6.086;2024-02-23T02:38:12;5.70;99.90
52415;DHT22;38340;52.964;6.086;2024-02-23T02:40:38;5.70;99.90
52415;DHT22;38340;52.964;6.086;2024-02-23T02:43:04;5.70;99.90
52415;DHT22;38340;52.964;6.086;2024-02-23T02:45:30;5.70;99.90
52415;DHT22;38340;52.964;6.086;2024-02-23T02:47:55;5.70;99.90
52415;DHT22;38340;52.964;6.086;2024-02-23T02:50:22;5.70;99.90
52415;DHT22;38340;52.964;6.086;2024-02-23T02:52:48;5.70;99.90
52415;DHT22;38340;52.964;6.086;2024-02-23T02:55:13;5.60;99.90
52415;DHT22;38340;52.964;6.086;2024-02-23T02:57:39;5.60;99.90
52415;DHT22;38340;52.964;6.086;2024-02-23T03:00:05;5.60;99.90
52415;DHT22;38340;52.964;6.086;2024-02-23T03:02:32;5.50;99.90
52415;DHT22;38340;52.964;6.086;2024-02-23T03:04:57;5.50;99.90
52415;DHT22;38340;52.964;6.086;2024-02-23T03:07:23;5.40;99.90
52415;DHT22;38340;52.964;6.086;2024-02-23T03:09:49;5.40;99.90
52415;DHT22;38340;52.964;6.086;2024-02-23T03:12:17;5.40;99.90
52415;DHT22;38340;52.964;6.086;2024-02-23T03:14:43;5.40;99.90
52415;DHT22;38340;52.964;6.086;2024-02-23T03:17:09;5.40;99.90
52415;DHT22;38340;52.964;6.086;2024-02-23T03:19:36;5.40;99.90
52415;DHT22;38340;52.964;6.086;2024-02-23T03:22:02;5.40;99.90
52415;DHT22;38340;52.964;6.086;2024-02-23T03:24:27;5.30;99.90
52415;DHT22;38340;52.964;6.086;2024-02-23T03:26:53;5.40;99.90
52415;DHT22;38340;52.964;6.086;2024-02-23T03:29:19;5.40;99.90
52415;DHT22;38340;52.964;6.086;2024-02-23T03:31:45;5.30;99.90
52415;DHT22;38340;52.964;6.086;2024-02-23T03:34:11;5.30;99.90
52415;DHT22;38340;52.964;6.086;2024-02-23T03:36:38;5.30;99.90
52415;DHT22;38340;52.964;6.086;2024-02-23T03:39:04;5.30;99.90
52415;DHT22;38340;52.964;6.086;2024-02-23T03:41:29;5.30;99.90
52415;DHT22;38340;52.964;6.086;2024-02-23T03:43:55;5.30;99.90
52415;DHT22;38340;52.964;6.086;2024-02-23T03:46:21;5.20;99.90
52415;DHT22;38340;52.964;6.086;2024-02-23T03:48:47;5.20;99.90
52415;DHT22;38340;52.964;6.086;2024-02-23T03:51:13;5.20;99.90
52415;DHT22;38340;52.964;6.086;2024-02-23T03:53:38;5.20;99.90
52415;DHT22;38340;52.964;6.086;2024-02-23T03:56:04;5.20;99.90
52415;DHT22;38340;52.964;6.086;2024-02-23T03:58:30;5.20;99.90
52415;DHT22;38340;52.964;6.086;2024-02-23T04:00:56;5.20;99.90
52415;DHT22;38340;52.964;6.086;2024-02-23T04:03:21;5.20;99.90
52415;DHT22;38340;52.964;6.086;2024-02-23T04:05:47;5.20;99.90
52415;DHT22;38340;52.964;6.086;2024-02-23T04:08:13;5.20;99.90
52415;DHT22;38340;52.964;6.086;2024-02-23T04:10:38;5.10;99.90
52415;DHT22;38340;52.964;6.086;2024-02-23T04:13:04;5.20;99.90
52415;DHT22;38340;52.964;6.086;2024-02-23T04:15:30;5.20;99.90
52415;DHT22;38340;52.964;6.086;2024-02-23T04:17:55;5.20;99.90
52415;DHT22;38340;52.964;6.086;2024-02-23T04:20:21;5.20;99.90
52415;DHT22;38340;52.964;6.086;2024-02-23T04:22:47;5.20;99.90
52415;DHT22;38340;52.964;6.086;2024-02-23T04:25:13;5.10;99.90
52415;DHT22;38340;52.964;6.086;2024-02-23T04:27:38;5.10;99.90
52415;DHT22;38340;52.964;6.086;2024-02-23T04:30:05;5.10;99.90
52415;DHT22;38340;52.964;6.086;2024-02-23T04:32:31;5.10;99.90
52415;DHT22;38340;52.964;6.086;2024-02-23T04:34:57;5.10;99.90
52415;DHT22;38340;52.964;6.086;2024-02-23T04:37:23;5.00;99.90
52415;DHT22;38340;52.964;6.086;2024-02-23T04:39:48;4.90;99.90
52415;DHT22;38340;52.964;6.086;2024-02-23T04:42:14;4.90;99.90
52415;DHT22;38340;52.964;6.086;2024-02-23T04:44:43;4.90;99.90
52415;DHT22;38340;52.964;6.086;2024-02-23T04:47:09;4.90;99.90
52415;DHT22;38340;52.964;6.086;2024-02-23T04:49:35;4.90;99.90
52415;DHT22;38340;52.964;6.086;2024-02-23T04:52:01;4.90;99.90
52415;DHT22;38340;52.964;6.086;2024-02-23T04:54:26;4.90;99.90
52415;DHT22;38340;52.964;6.086;2024-02-23T04:56:52;5.00;99.90
52415;DHT22;38340;52.964;6.086;2024-02-23T04:59:18;5.00;99.90
52415;DHT22;38340;52.964;6.086;2024-02-23T05:01:44;5.00;99.90
52415;DHT22;38340;52.964;6.086;2024-02-23T05:04:09;5.00;99.90
52415;DHT22;38340;52.964;6.086;2024-02-23T05:06:35;5.10;99.90
52415;DHT22;38340;52.964;6.086;2024-02-23T05:09:01;5.00;99.90
52415;DHT22;38340;52.964;6.086;2024-02-23T05:11:28;4.90;99.90
52415;DHT22;38340;52.964;6.086;2024-02-23T05:13:54;4.90;99.90
52415;DHT22;38340;52.964;6.086;2024-02-23T05:16:19;4.90;99.90
52415;DHT22;38340;52.964;6.086;2024-02-23T05:18:45;4.80;99.90
52415;DHT22;38340;52.964;6.086;2024-02-23T05:21:14;4.80;99.90
52415;DHT22;38340;52.964;6.086;2024-02-23T05:23:40;4.80;99.90
52415;DHT22;38340;52.964;6.086;2024-02-23T05:26:05;4.80;99.90
52415;DHT22;38340;52.964;6.086;2024-02-23T05:28:31;4.80;99.90
52415;DHT22;38340;52.964;6.086;2024-02-23T05:30:57;4.80;99.90
52415;DHT22;38340;52.964;6.086;2024-02-23T05:33:23;4.80;99.90
52415;DHT22;38340;52.964;6.086;2024-02-23T05:35:49;4.80;99.90
52415;DHT22;38340;52.964;6.086;2024-02-23T05:38:15;4.80;99.90
52415;DHT22;38340;52.964;6.086;2024-02-23T05:40:42;4.80;99.90
52415;DHT22;38340;52.964;6.086;2024-02-23T05:43:08;4.70;99.90
52415;DHT22;38340;52.964;6.086;2024-02-23T05:45:34;4.80;99.90
52415;DHT22;38340;52.964;6.086;2024-02-23T05:47:59;4.80;99.90
52415;DHT22;38340;52.964;6.086;2024-02-23T05:50:25;4.80;99.90
52415;DHT22;38340;52.964;6.086;2024-02-23T05:52:51;4.80;99.90
52415;DHT22;38340;52.964;6.086;2024-02-23T05:55:19;4.80;99.90
52415;DHT22;38340;52.964;6.086;2024-02-23T05:57:44;4.80;99.90
52415;DHT22;38340;52.964;6.086;2024-02-23T06:00:10;4.80;99.90
52415;DHT22;38340;52.964;6.086;2024-02-23T06:02:37;4.80;99.90
52415;DHT22;38340;52.964;6.086;2024-02-23T06:05:04;4.80;99.90
52415;DHT22;38340;52.964;6.086;2024-02-23T06:07:30;4.80;99.90
52415;DHT22;38340;52.964;6.086;2024-02-23T06:09:56;4.80;99.90
52415;DHT22;38340;52.964;6.086;2024-02-23T06:12:22;4.70;99.90
52415;DHT22;38340;52.964;6.086;2024-02-23T06:14:48;4.70;99.90
52415;DHT22;38340;52.964;6.086;2024-02-23T06:17:14;4.70;99.90
52415;DHT22;38340;52.964;6.086;2024-02-23T06:19:39;4.70;99.90
52415;DHT22;38340;52.964;6.086;2024-02-23T06:22:05;4.60;99.90
52415;DHT22;38340;52.964;6.086;2024-02-23T06:24:32;4.60;99.90
52415;DHT22;38340;52.964;6.086;2024-02-23T06:26:57;4.50;99.90
52415;DHT22;38340;52.964;6.086;2024-02-23T06:29:25;4.50;99.90
52415;DHT22;38340;52.964;6.086;2024-02-23T06:31:50;4.50;99.90
52415;DHT22;38340;52.964;6.086;2024-02-23T06:34:16;4.50;99.90
52415;DHT22;38340;52.964;6.086;2024-02-23T06:36:42;4.50;99.90
52415;DHT22;38340;52.964;6.086;2024-02-23T06:39:08;4.50;99.90
52415;DHT22;38340;52.964;6.086;2024-02-23T06:41:34;4.60;99.90
52415;DHT22;38340;52.964;6.086;2024-02-23T06:44:00;4.50;99.90
52415;DHT22;38340;52.964;6.086;2024-02-23T06:46:26;4.50;99.90
52415;DHT22;38340;52.964;6.086;2024-02-23T06:48:51;4.50;99.90
52415;DHT22;38340;52.964;6.086;2024-02-23T06:51:17;4.60;99.90
52415;DHT22;38340;52.964;6.086;2024-02-23T06:53:43;4.50;99.90
52415;DHT22;38340;52.964;6.086;2024-02-23T06:56:08;4.60;99.90
52415;DHT22;38340;52.964;6.086;2024-02-23T06:58:34;4.60;99.90
52415;DHT22;38340;52.964;6.086;2024-02-23T07:01:02;4.70;99.90
52415;DHT22;38340;52.964;6.086;2024-02-23T07:03:28;4.70;99.90
52415;DHT22;38340;52.964;6.086;2024-02-23T07:05:55;4.60;99.90
52415;DHT22;38340;52.964;6.086;2024-02-23T07:08:21;4.60;99.90
52415;DHT22;38340;52.964;6.086;2024-02-23T07:10:46;4.60;99.90
52415;DHT22;38340;52.964;6.086;2024-02-23T07:13:12;4.60;99.90
52415;DHT22;38340;52.964;6.086;2024-02-23T07:15:38;4.50;99.90
52415;DHT22;38340;52.964;6.086;2024-02-23T07:18:04;4.50;99.90
52415;DHT22;38340;52.964;6.086;2024-02-23T07:20:30;4.50;99.90
52415;DHT22;38340;52.964;6.086;2024-02-23T07:22:55;4.60;99.90
52415;DHT22;38340;52.964;6.086;2024-02-23T07:25:21;4.70;99.90
52415;DHT22;38340;52.964;6.086;2024-02-23T07:27:47;4.70;99.90
52415;DHT22;38340;52.964;6.086;2024-02-23T07:30:16;4.80;99.90
52415;DHT22;38340;52.964;6.086;2024-02-23T07:32:43;4.80;99.90
52415;DHT22;38340;52.964;6.086;2024-02-23T07:35:10;4.90;99.90
52415;DHT22;38340;52.964;6.086;2024-02-23T07:37:38;4.90;99.90
52415;DHT22;38340;52.964;6.086;2024-02-23T07:40:05;4.90;99.90
52415;DHT22;38340;52.964;6.086;2024-02-23T07:42:32;5.00;99.90
52415;DHT22;38340;52.964;6.086;2024-02-23T07:44:58;5.00;99.90
52415;DHT22;38340;52.964;6.086;2024-02-23T07:47:24;5.00;99.90
52415;DHT22;38340;52.964;6.086;2024-02-23T07:49:52;5.00;99.90
52415;DHT22;38340;52.964;6.086;2024-02-23T07:52:19;5.00;99.90
52415;DHT22;38340;52.964;6.086;2024-02-23T07:54:45;5.10;99.90
52415;DHT22;38340;52.964;6.086;2024-02-23T07:57:10;5.10;99.90
52415;DHT22;38340;52.964;6.086;2024-02-23T07:59:36;5.10;99.90
52415;DHT22;38340;52.964;6.086;2024-02-23T08:02:02;5.10;99.90
52415;DHT22;38340;52.964;6.086;2024-02-23T08:04:27;5.10;99.90
52415;DHT22;38340;52.964;6.086;2024-02-23T08:06:53;5.20;99.90
52415;DHT22;38340;52.964;6.086;2024-02-23T08:09:19;5.10;99.90
52415;DHT22;38340;52.964;6.086;2024-02-23T08:11:46;5.20;99.90
52415;DHT22;38340;52.964;6.086;2024-02-23T08:14:13;5.20;99.90
52415;DHT22;38340;52.964;6.086;2024-02-23T08:16:38;5.20;99.90
52415;DHT22;38340;52.964;6.086;2024-02-23T08:19:04;5.20;99.90
52415;DHT22;38340;52.964;6.086;2024-02-23T08:21:29;5.30;99.90
52415;DHT22;38340;52.964;6.086;2024-02-23T08:23:55;5.30;99.90
52415;DHT22;38340;52.964;6.086;2024-02-23T08:26:21;5.40;99.90
52415;DHT22;38340;52.964;6.086;2024-02-23T08:28:47;5.40;99.90
52415;DHT22;38340;52.964;6.086;2024-02-23T08:31:13;5.40;99.90
52415;DHT22;38340;52.964;6.086;2024-02-23T08:33:38;5.50;99.90
52415;DHT22;38340;52.964;6.086;2024-02-23T08:36:04;5.50;99.90
52415;DHT22;38340;52.964;6.086;2024-02-23T08:38:32;5.50;99.90
52415;DHT22;38340;52.964;6.086;2024-02-23T08:40:58;5.50;99.90
52415;DHT22;38340;52.964;6.086;2024-02-23T08:43:24;5.50;99.90
52415;DHT22;38340;52.964;6.086;2024-02-23T08:45:50;5.50;99.90
52415;DHT22;38340;52.964;6.086;2024-02-23T08:48:16;5.50;99.90
52415;DHT22;38340;52.964;6.086;2024-02-23T08:50:44;5.60;99.90
52415;DHT22;38340;52.964;6.086;2024-02-23T08:53:10;5.70;99.90
52415;DHT22;38340;52.964;6.086;2024-02-23T08:55:35;5.70;99.90
52415;DHT22;38340;52.964;6.086;2024-02-23T08:58:01;5.70;99.90
52415;DHT22;38340;52.964;6.086;2024-02-23T09:00:27;5.80;99.90
52415;DHT22;38340;52.964;6.086;2024-02-23T09:02:52;5.80;99.90
52415;DHT22;38340;52.964;6.086;2024-02-23T09:05:18;5.90;99.90
52415;DHT22;38340;52.964;6.086;2024-02-23T09:07:45;5.90;99.90
52415;DHT22;38340;52.964;6.086;2024-02-23T09:10:10;5.90;99.90
52415;DHT22;38340;52.964;6.086;2024-02-23T09:12:37;5.90;99.90
52415;DHT22;38340;52.964;6.086;2024-02-23T09:15:04;5.90;99.90
52415;DHT22;38340;52.964;6.086;2024-02-23T09:17:30;5.90;99.90
52415;DHT22;38340;52.964;6.086;2024-02-23T09:19:56;5.90;99.90
52415;DHT22;38340;52.964;6.086;2024-02-23T09:22:22;5.90;99.90
52415;DHT22;38340;52.964;6.086;2024-02-23T09:24:48;5.90;99.90
52415;DHT22;38340;52.964;6.086;2024-02-23T09:27:13;6.00;99.90
52415;DHT22;38340;52.964;6.086;2024-02-23T09:29:40;6.10;99.90
52415;DHT22;38340;52.964;6.086;2024-02-23T09:32:07;6.10;99.90
52415;DHT22;38340;52.964;6.086;2024-02-23T09:34:33;6.10;99.90
52415;DHT22;38340;52.964;6.086;2024-02-23T09:36:58;6.30;99.90
52415;DHT22;38340;52.964;6.086;2024-02-23T09:39:24;6.40;99.90
52415;DHT22;38340;52.964;6.086;2024-02-23T09:41:51;6.50;99.90
52415;DHT22;38340;52.964;6.086;2024-02-23T09:44:20;6.60;99.90
52415;DHT22;38340;52.964;6.086;2024-02-23T09:46:49;6.60;99.90
52415;DHT22;38340;52.964;6.086;2024-02-23T09:49:15;6.60;99.90
52415;DHT22;38340;52.964;6.086;2024-02-23T09:51:42;6.60;99.90
52415;DHT22;38340;52.964;6.086;2024-02-23T09:54:08;6.60;99.90
52415;DHT22;38340;52.964;6.086;2024-02-23T09:56:33;6.50;99.90
52415;DHT22;38340;52.964;6.086;2024-02-23T09:59:02;6.40;99.90
52415;DHT22;38340;52.964;6.086;2024-02-23T10:01:30;6.30;99.90
52415;DHT22;38340;52.964;6.086;2024-02-23T10:03:57;6.30;99.90
52415;DHT22;38340;52.964;6.086;2024-02-23T10:06:24;6.20;99.90
52415;DHT22;38340;52.964;6.086;2024-02-23T10:08:50;6.20;99.90
52415;DHT22;38340;52.964;6.086;2024-02-23T10:11:20;6.30;99.90
52415;DHT22;38340;52.964;6.086;2024-02-23T10:13:48;6.30;99.90
52415;DHT22;38340;52.964;6.086;2024-02-23T10:16:19;6.40;99.90
52415;DHT22;38340;52.964;6.086;2024-02-23T10:18:48;6.40;99.90
52415;DHT22;38340;52.964;6.086;2024-02-23T10:21:17;6.50;99.90
52415;DHT22;38340;52.964;6.086;2024-02-23T10:23:47;6.50;99.90
52415;DHT22;38340;52.964;6.086;2024-02-23T10:26:13;6.50;99.90
52415;DHT22;38340;52.964;6.086;2024-02-23T10:28:39;6.50;99.90
52415;DHT22;38340;52.964;6.086;2024-02-23T10:31:08;6.40;99.90
52415;DHT22;38340;52.964;6.086;2024-02-23T10:33:34;6.50;99.90
52415;DHT22;38340;52.964;6.086;2024-02-23T10:36:00;6.40;99.90
52415;DHT22;38340;52.964;6.086;2024-02-23T10:38:27;6.40;99.90
52415;DHT22;38340;52.964;6.086;2024-02-23T10:40:55;6.40;99.90
52415;DHT22;38340;52.964;6.086;2024-02-23T10:43:50;6.40;99.90
52415;DHT22;38340;52.964;6.086;2024-02-23T10:46:17;6.40;99.90
52415;DHT22;38340;52.964;6.086;2024-02-23T10:48:44;6.40;99.90
52415;DHT22;38340;52.964;6.086;2024-02-23T10:51:14;6.30;99.90
52415;DHT22;38340;52.964;6.086;2024-02-23T10:53:40;6.30;99.90
52415;DHT22;38340;52.964;6.086;2024-02-23T10:56:07;6.20;99.90
52415;DHT22;38340;52.964;6.086;2024-02-23T10:58:33;6.20;99.90
52415;DHT22;38340;52.964;6.086;2024-02-23T11:01:04;6.20;99.90
52415;DHT22;38340;52.964;6.086;2024-02-23T11:03:33;6.10;99.90
52415;DHT22;38340;52.964;6.086;2024-02-23T11:06:00;6.20;99.90
52415;DHT22;38340;52.964;6.086;2024-02-23T11:08:29;6.20;99.90
52415;DHT22;38340;52.964;6.086;2024-02-23T11:10:55;6.20;99.90
52415;DHT22;38340;52.964;6.086;2024-02-23T11:13:30;6.30;99.90
52415;DHT22;38340;52.964;6.086;2024-02-23T11:16:05;6.30;99.90
52415;DHT22;38340;52.964;6.086;2024-02-23T11:18:33;6.30;99.90
52415;DHT22;38340;52.964;6.086;2024-02-23T11:21:01;6.40;99.90
52415;DHT22;38340;52.964;6.086;2024-02-23T11:23:41;6.40;99.90
52415;DHT22;38340;52.964;6.086;2024-02-23T11:26:10;6.40;99.90
52415;DHT22;38340;52.964;6.086;2024-02-23T11:29:11;6.50;99.90
52415;DHT22;38340;52.964;6.086;2024-02-23T11:31:46;6.50;99.90
52415;DHT22;38340;52.964;6.086;2024-02-23T11:34:11;6.50;99.90
52415;DHT22;38340;52.964;6.086;2024-02-23T11:36:38;6.60;99.90
52415;DHT22;38340;52.964;6.086;2024-02-23T11:39:04;6.70;99.90
52415;DHT22;38340;52.964;6.086;2024-02-23T11:41:30;6.70;99.90
52415;DHT22;38340;52.964;6.086;2024-02-23T11:43:57;6.70;99.90
52415;DHT22;38340;52.964;6.086;2024-02-23T11:46:23;6.70;99.90
52415;DHT22;38340;52.964;6.086;2024-02-23T11:48:49;6.60;99.90
52415;DHT22;38340;52.964;6.086;2024-02-23T11:51:22;6.60;99.90
52415;DHT22;38340;52.964;6.086;2024-02-23T11:53:49;6.60;99.90
52415;DHT22;38340;52.964;6.086;2024-02-23T11:56:15;6.60;99.90
52415;DHT22;38340;52.964;6.086;2024-02-23T11:58:42;6.70;99.90
52415;DHT22;38340;52.964;6.086;2024-02-23T12:01:08;6.80;99.90
52415;DHT22;38340;52.964;6.086;2024-02-23T12:03:34;6.80;99.90
52415;DHT22;38340;52.964;6.086;2024-02-23T12:06:00;6.80;99.90
52415;DHT22;38340;52.964;6.086;2024-02-23T12:08:27;6.90;99.90
52415;DHT22;38340;52.964;6.086;2024-02-23T12:10:57;6.90;99.90
52415;DHT22;38340;52.964;6.086;2024-02-23T12:13:26;7.00;99.90
52415;DHT22;38340;52.964;6.086;2024-02-23T12:15:55;7.10;99.90
52415;DHT22;38340;52.964;6.086;2024-02-23T12:18:22;7.10;99.90
52415;DHT22;38340;52.964;6.086;2024-02-23T12:21:05;7.10;99.90
52415;DHT22;38340;52.964;6.086;2024-02-23T12:23:44;7.20;99.90
52415;DHT22;38340;52.964;6.086;2024-02-23T12:26:12;7.30;99.90
52415;DHT22;38340;52.964;6.086;2024-02-23T12:28:39;7.30;99.90
52415;DHT22;38340;52.964;6.086;2024-02-23T12:31:05;7.40;99.90
52415;DHT22;38340;52.964;6.086;2024-02-23T12:33:32;7.40;99.90
52415;DHT22;38340;52.964;6.086;2024-02-23T12:35:58;7.40;99.90
52415;DHT22;38340;52.964;6.086;2024-02-23T12:38:24;7.40;99.90
52415;DHT22;38340;52.964;6.086;2024-02-23T12:40:50;7.40;99.90
52415;DHT22;38340;52.964;6.086;2024-02-23T12:43:16;7.40;99.90
52415;DHT22;38340;52.964;6.086;2024-02-23T12:45:42;7.40;99.90
52415;DHT22;38340;52.964;6.086;2024-02-23T12:48:10;7.40;99.90
52415;DHT22;38340;52.964;6.086;2024-02-23T12:50:36;7.40;99.90
52415;DHT22;38340;52.964;6.086;2024-02-23T12:53:02;7.40;99.90
52415;DHT22;38340;52.964;6.086;2024-02-23T12:55:29;7.50;99.90
52415;DHT22;38340;52.964;6.086;2024-02-23T12:57:55;7.50;99.90
52415;DHT22;38340;52.964;6.086;2024-02-23T13:00:20;7.60;99.90
52415;DHT22;38340;52.964;6.086;2024-02-23T13:02:46;7.70;99.90
52415;DHT22;38340;52.964;6.086;2024-02-23T13:05:12;7.70;99.90
52415;DHT22;38340;52.964;6.086;2024-02-23T13:07:38;7.60;99.90
52415;DHT22;38340;52.964;6.086;2024-02-23T13:10:06;7.70;99.90
52415;DHT22;38340;52.964;6.086;2024-02-23T13:12:32;7.70;99.90
52415;DHT22;38340;52.964;6.086;2024-02-23T13:14:58;7.60;99.90
52415;DHT22;38340;52.964;6.086;2024-02-23T13:17:24;7.70;99.90
52415;DHT22;38340;52.964;6.086;2024-02-23T13:19:49;7.70;99.90
52415;DHT22;38340;52.964;6.086;2024-02-23T13:22:15;7.70;99.90
52415;DHT22;38340;52.964;6.086;2024-02-23T13:24:41;7.80;99.90
52415;DHT22;38340;52.964;6.086;2024-02-23T13:27:06;7.80;99.90
52415;DHT22;38340;52.964;6.086;2024-02-23T13:29:32;7.90;99.90
52415;DHT22;38340;52.964;6.086;2024-02-23T13:31:58;7.90;99.90
52415;DHT22;38340;52.964;6.086;2024-02-23T13:34:23;7.80;99.90
52415;DHT22;38340;52.964;6.086;2024-02-23T13:36:49;7.80;99.90
52415;DHT22;38340;52.964;6.086;2024-02-23T13:39:15;7.80;99.90
52415;DHT22;38340;52.964;6.086;2024-02-23T13:41:41;7.80;99.90
52415;DHT22;38340;52.964;6.086;2024-02-23T13:44:07;7.90;99.90
52415;DHT22;38340;52.964;6.086;2024-02-23T13:46:37;8.00;99.90
52415;DHT22;38340;52.964;6.086;2024-02-23T13:49:05;8.00;99.90
52415;DHT22;38340;52.964;6.086;2024-02-23T13:51:34;8.00;99.90
52415;DHT22;38340;52.964;6.086;2024-02-23T13:54:00;8.00;99.90
52415;DHT22;38340;52.964;6.086;2024-02-23T13:56:26;7.90;99.90
52415;DHT22;38340;52.964;6.086;2024-02-23T13:58:52;7.90;99.90
52415;DHT22;38340;52.964;6.086;2024-02-23T14:01:17;8.00;99.90
52415;DHT22;38340;52.964;6.086;2024-02-23T14:03:43;8.00;99.90
52415;DHT22;38340;52.964;6.086;2024-02-23T14:06:09;8.10;99.90
52415;DHT22;38340;52.964;6.086;2024-02-23T14:08:35;8.10;99.90
52415;DHT22;38340;52.964;6.086;2024-02-23T14:11:03;8.00;99.90
52415;DHT22;38340;52.964;6.086;2024-02-23T14:13:32;7.90;99.90
52415;DHT22;38340;52.964;6.086;2024-02-23T14:15:58;7.90;99.90
52415;DHT22;38340;52.964;6.086;2024-02-23T14:18:24;7.80;99.90
52415;DHT22;38340;52.964;6.086;2024-02-23T14:20:50;7.80;99.90
52415;DHT22;38340;52.964;6.086;2024-02-23T14:23:17;7.70;99.90
52415;DHT22;38340;52.964;6.086;2024-02-23T14:25:43;7.60;99.90
52415;DHT22;38340;52.964;6.086;2024-02-23T14:28:09;7.20;99.90
52415;DHT22;38340;52.964;6.086;2024-02-23T14:30:35;7.00;99.90
52415;DHT22;38340;52.964;6.086;2024-02-23T14:33:01;7.00;99.90
52415;DHT22;38340;52.964;6.086;2024-02-23T14:35:27;6.60;99.90
52415;DHT22;38340;52.964;6.086;2024-02-23T14:37:53;6.20;99.90
52415;DHT22;38340;52.964;6.086;2024-02-23T14:40:19;6.10;99.90
52415;DHT22;38340;52.964;6.086;2024-02-23T14:42:44;6.10;99.90
52415;DHT22;38340;52.964;6.086;2024-02-23T14:45:10;6.20;99.90
52415;DHT22;38340;52.964;6.086;2024-02-23T14:47:39;6.40;99.90
52415;DHT22;38340;52.964;6.086;2024-02-23T14:50:05;6.50;99.90
52415;DHT22;38340;52.964;6.086;2024-02-23T14:52:31;6.60;99.90
52415;DHT22;38340;52.964;6.086;2024-02-23T14:54:56;6.80;99.90
52415;DHT22;38340;52.964;6.086;2024-02-23T14:57:22;6.90;99.90
52415;DHT22;38340;52.964;6.086;2024-02-23T14:59:48;7.00;99.90
52415;DHT22;38340;52.964;6.086;2024-02-23T15:02:22;7.10;99.90
52415;DHT22;38340;52.964;6.086;2024-02-23T15:04:48;7.10;99.90
52415;DHT22;38340;52.964;6.086;2024-02-23T15:07:14;7.20;99.90
52415;DHT22;38340;52.964;6.086;2024-02-23T15:09:40;7.30;99.90
52415;DHT22;38340;52.964;6.086;2024-02-23T15:12:06;7.30;99.90
52415;DHT22;38340;52.964;6.086;2024-02-23T15:14:32;7.30;99.90
52415;DHT22;38340;52.964;6.086;2024-02-23T15:16:57;7.30;99.90
52415;DHT22;38340;52.964;6.086;2024-02-23T15:19:23;7.30;99.90
52415;DHT22;38340;52.964;6.086;2024-02-23T15:21:49;7.30;99.90
52415;DHT22;38340;52.964;6.086;2024-02-23T15:24:18;7.30;99.90
52415;DHT22;38340;52.964;6.086;2024-02-23T15:26:45;7.20;99.90
52415;DHT22;38340;52.964;6.086;2024-02-23T15:29:11;7.20;99.90
52415;DHT22;38340;52.964;6.086;2024-02-23T15:31:38;7.20;99.90
52415;DHT22;38340;52.964;6.086;2024-02-23T15:34:05;7.20;99.90
52415;DHT22;38340;52.964;6.086;2024-02-23T15:36:31;7.20;99.90
52415;DHT22;38340;52.964;6.086;2024-02-23T15:38:56;7.20;99.90
52415;DHT22;38340;52.964;6.086;2024-02-23T15:41:29;7.20;99.90